createdAt,value
2023-04-18T00:00:54.312Z,1.40
2023-04-18T00:01:57.027Z,1.52
2023-04-18T00:03:07.154Z,1.25
2023-04-18T00:05:28.143Z,1.60
2023-04-18T00:06:31.678Z,1.15
2023-04-18T00:07:35.597Z,1.45
2023-04-18T00:09:40.872Z,1.38
2023-04-18T00:10:52.768Z,1.80
2023-04-18T00:11:55.449Z,1.45
2023-04-18T00:12:58.528Z,1.20
2023-04-18T00:14:00.990Z,1.52
2023-04-18T00:15:04.653Z,1.60
2023-04-18T00:16:08.807Z,1.83
2023-04-18T00:17:11.620Z,1.23
2023-04-18T00:18:17.319Z,1.27
2023-04-18T00:19:20.397Z,1.48
2023-04-18T00:20:26.613Z,1.50
2023-04-18T00:21:30.313Z,1.55
2023-04-18T00:22:33.929Z,1.55
2023-04-18T00:23:36.517Z,1.65
2023-04-18T00:24:39.965Z,1.75
2023-04-18T00:25:42.364Z,1.25
2023-04-18T00:26:44.958Z,1.70
2023-04-18T00:27:47.354Z,1.77
2023-04-18T00:28:51.136Z,1.67
2023-04-18T00:29:53.432Z,1.65
2023-04-18T00:30:55.859Z,1.60
2023-04-18T00:31:58.942Z,1.48
2023-04-18T00:33:01.618Z,1.40
2023-04-18T00:34:04.003Z,1.80
2023-04-18T00:35:06.883Z,1.35
2023-04-18T00:36:10.240Z,1.70
2023-04-18T00:37:13.023Z,1.33
2023-04-18T00:38:17.538Z,1.95
2023-04-18T00:39:19.964Z,1.67
2023-04-18T00:40:22.286Z,1.63
2023-04-18T00:41:27.748Z,1.50
2023-04-18T00:42:30.081Z,1.48
2023-04-18T00:43:37.381Z,1.58
2023-04-18T00:44:39.707Z,1.58
2023-04-18T00:45:45.865Z,1.70
2023-04-18T00:46:48.731Z,1.65
2023-04-18T00:47:51.066Z,1.70
2023-04-18T00:48:53.740Z,1.50
2023-04-18T00:49:57.480Z,1.65
2023-04-18T00:51:00.649Z,1.80
2023-04-18T00:52:03.170Z,1.50
2023-04-18T00:53:06.057Z,1.55
2023-04-18T00:54:09.260Z,1.70
2023-04-18T00:55:11.964Z,1.65
2023-04-18T00:56:14.680Z,1.55
2023-04-18T00:57:24.263Z,1.60
2023-04-18T00:58:30.136Z,1.83
2023-04-18T00:59:59.838Z,1.77
2023-04-18T01:01:09.778Z,1.40
2023-04-18T01:02:12.622Z,1.70
2023-04-18T01:03:18.735Z,1.40
2023-04-18T01:04:21.832Z,1.38
2023-04-18T01:05:24.682Z,1.80
2023-04-18T01:06:27.814Z,1.33
2023-04-18T01:07:32.066Z,1.42
2023-04-18T01:08:34.651Z,1.48
2023-04-18T01:09:37.526Z,1.50
2023-04-18T01:10:39.943Z,1.60
2023-04-18T01:11:43.512Z,1.70
2023-04-18T01:12:45.991Z,1.48
2023-04-18T01:14:05.236Z,1.40
2023-04-18T01:15:11.835Z,1.70
2023-04-18T01:16:14.276Z,1.50
2023-04-18T01:17:17.651Z,1.55
2023-04-18T01:18:21.007Z,1.60
2023-04-18T01:19:23.712Z,1.60
2023-04-18T01:20:33.702Z,1.45
2023-04-18T01:21:37.595Z,1.65
2023-04-18T01:23:31.415Z,1.48
2023-04-18T01:25:07.130Z,1.48
2023-04-18T01:26:17.990Z,1.35
2023-04-18T01:27:20.527Z,1.42
2023-04-18T01:28:23.056Z,1.67
2023-04-18T01:29:28.710Z,1.30
2023-04-18T01:30:33.683Z,1.13
2023-04-18T01:31:37.433Z,1.33
2023-04-18T01:32:39.876Z,1.65
2023-04-18T01:33:42.345Z,1.60
2023-04-18T01:34:44.778Z,1.42
2023-04-18T01:35:47.280Z,1.33
2023-04-18T01:36:50.355Z,1.63
2023-04-18T01:37:52.766Z,1.70
2023-04-18T01:38:55.878Z,1.33
2023-04-18T01:39:58.544Z,1.27
2023-04-18T01:41:01.012Z,1.30
2023-04-18T01:42:03.377Z,1.70
2023-04-18T01:43:05.808Z,1.70
2023-04-18T01:44:08.285Z,1.40
2023-04-18T01:45:11.898Z,1.30
2023-04-18T01:46:15.904Z,1.48
2023-04-18T01:47:18.675Z,1.73
2023-04-18T01:48:21.195Z,1.27
2023-04-18T01:49:23.540Z,1.50
2023-04-18T01:50:25.867Z,1.20
2023-04-18T01:51:28.595Z,1.20
2023-04-18T01:52:31.256Z,1.38
2023-04-18T01:53:33.591Z,1.50
2023-04-18T01:54:36.053Z,1.50
2023-04-18T01:55:38.546Z,1.42
2023-04-18T01:56:41.797Z,1.35
2023-04-18T01:57:44.372Z,1.38
2023-04-18T01:58:46.864Z,1.13
2023-04-18T01:59:49.282Z,1.10
2023-04-18T02:00:54.307Z,1.45
2023-04-18T02:01:57.061Z,1.35
2023-04-18T02:03:00.449Z,1.38
2023-04-18T02:04:03.268Z,1.42
2023-04-18T02:05:06.127Z,1.30
2023-04-18T02:06:08.555Z,1.27
2023-04-18T02:07:11.149Z,1.00
2023-04-18T02:08:14.257Z,1.23
2023-04-18T02:09:16.655Z,1.38
2023-04-18T02:10:19.845Z,1.23
2023-04-18T02:11:22.460Z,1.20
2023-04-18T02:12:24.826Z,1.38
2023-04-18T02:13:28.035Z,1.70
2023-04-18T02:14:32.130Z,1.65
2023-04-18T02:15:36.260Z,1.10
2023-04-18T02:16:39.104Z,1.45
2023-04-18T02:18:59.149Z,1.33
2023-04-18T02:20:02.130Z,1.25
2023-04-18T02:21:04.811Z,1.20
2023-04-18T02:22:07.211Z,1.20
2023-04-18T02:23:10.070Z,1.33
2023-04-18T02:24:12.609Z,1.20
2023-04-18T02:25:17.016Z,1.38
2023-04-18T02:26:19.296Z,1.40
2023-04-18T02:27:21.822Z,1.15
2023-04-18T02:28:24.253Z,1.20
2023-04-18T02:29:26.664Z,1.30
2023-04-18T02:30:29.121Z,1.58
2023-04-18T02:31:32.335Z,1.10
2023-04-18T02:32:34.866Z,1.15
2023-04-18T02:33:37.451Z,1.25
2023-04-18T02:34:39.915Z,1.38
2023-04-18T02:35:42.456Z,1.38
2023-04-18T02:36:51.858Z,1.20
2023-04-18T02:37:54.299Z,1.38
2023-04-18T02:38:57.049Z,1.38
2023-04-18T02:39:59.517Z,1.20
2023-04-18T02:41:31.443Z,1.40
2023-04-18T02:42:33.861Z,1.33
2023-04-18T02:43:37.203Z,1.40
2023-04-18T02:44:39.545Z,1.40
2023-04-18T02:45:41.983Z,1.55
2023-04-18T02:46:45.616Z,1.40
2023-04-18T02:47:55.564Z,1.20
2023-04-18T02:48:59.169Z,1.38
2023-04-18T02:50:03.820Z,1.40
2023-04-18T02:51:07.963Z,1.40
2023-04-18T02:52:12.548Z,1.17
2023-04-18T02:53:15.113Z,1.20
2023-04-18T02:54:26.517Z,1.02
2023-04-18T02:55:34.960Z,1.38
2023-04-18T02:56:40.241Z,1.30
2023-04-18T02:58:09.478Z,1.48
2023-04-18T02:59:47.479Z,1.35
2023-04-18T03:01:18.022Z,1.25
2023-04-18T03:02:34.673Z,1.20
2023-04-18T03:03:51.215Z,1.17
2023-04-18T03:05:25.776Z,0.90
2023-04-18T03:06:32.096Z,1.30
2023-04-18T03:07:36.956Z,1.35
2023-04-18T03:08:41.282Z,1.35
2023-04-18T03:09:44.630Z,1.35
2023-04-18T03:10:57.991Z,1.10
2023-04-18T03:12:02.816Z,1.50
2023-04-18T03:13:07.592Z,1.40
2023-04-18T03:14:20.065Z,1.50
2023-04-18T03:15:31.519Z,1.05
2023-04-18T03:16:34.257Z,1.50
2023-04-18T03:17:41.874Z,1.40
2023-04-18T03:18:44.323Z,1.30
2023-04-18T03:19:47.480Z,1.20
2023-04-18T03:20:58.652Z,1.10
2023-04-18T03:22:19.271Z,1.63
2023-04-18T03:23:28.395Z,1.27
2023-04-18T03:24:30.747Z,1.38
2023-04-18T03:25:35.921Z,1.40
2023-04-18T03:26:39.032Z,1.23
2023-04-18T03:27:43.378Z,1.33
2023-04-18T03:28:50.695Z,1.30
2023-04-18T03:29:53.440Z,1.38
2023-04-18T03:30:55.956Z,1.38
2023-04-18T03:32:05.430Z,1.42
2023-04-18T03:33:16.424Z,1.40
2023-04-18T03:34:19.890Z,1.00
2023-04-18T03:35:44.121Z,1.30
2023-04-18T03:37:25.698Z,1.55
2023-04-18T03:41:27.595Z,1.30
2023-04-18T03:42:43.054Z,1.40
2023-04-18T03:43:46.350Z,1.40
2023-04-18T03:44:52.196Z,1.42
2023-04-18T03:45:54.882Z,1.40
2023-04-18T03:46:57.661Z,1.40
2023-04-18T03:48:01.481Z,1.27
2023-04-18T03:49:04.620Z,1.55
2023-04-18T03:50:07.437Z,1.08
2023-04-18T03:51:10.052Z,1.52
2023-04-18T03:52:24.140Z,1.35
2023-04-18T03:53:27.592Z,1.50
2023-04-18T03:54:33.673Z,1.55
2023-04-18T03:55:36.067Z,1.52
2023-04-18T03:56:39.177Z,1.52
2023-04-18T03:57:41.613Z,1.45
2023-04-18T03:58:48.324Z,1.77
2023-04-18T03:59:52.206Z,1.63
2023-04-18T04:00:54.723Z,1.10
2023-04-18T04:01:57.314Z,1.23
2023-04-18T04:03:00.187Z,1.65
2023-04-18T04:04:03.347Z,1.50
2023-04-18T04:05:06.101Z,1.50
2023-04-18T04:06:09.936Z,1.52
2023-04-18T04:07:12.660Z,1.50
2023-04-18T04:08:16.527Z,1.63
2023-04-18T04:09:20.736Z,1.30
2023-04-18T04:10:23.365Z,1.40
2023-04-18T04:11:26.999Z,1.50
2023-04-18T04:12:29.588Z,1.60
2023-04-18T04:13:32.046Z,1.70
2023-04-18T04:14:34.490Z,1.30
2023-04-18T04:15:39.482Z,1.40
2023-04-18T04:16:58.488Z,1.50
2023-04-18T04:18:01.468Z,1.50
2023-04-18T04:19:04.866Z,1.33
2023-04-18T04:20:13.762Z,1.58
2023-04-18T04:21:16.586Z,1.35
2023-04-18T04:22:37.503Z,1.35
2023-04-18T04:23:45.320Z,1.40
2023-04-18T04:24:58.370Z,1.50
2023-04-18T04:26:31.894Z,1.52
2023-04-18T04:27:42.980Z,1.67
2023-04-18T04:28:57.599Z,1.70
2023-04-18T04:30:02.840Z,1.27
2023-04-18T04:31:07.068Z,1.90
2023-04-18T04:32:11.002Z,1.40
2023-04-18T04:33:14.062Z,1.40
2023-04-18T04:34:17.047Z,1.50
2023-04-18T04:35:19.582Z,1.98
2023-04-18T04:36:24.969Z,1.42
2023-04-18T04:37:28.709Z,1.48
2023-04-18T04:38:40.911Z,1.70
2023-04-18T04:39:44.639Z,1.40
2023-04-18T04:41:17.736Z,1.83
2023-04-18T04:42:20.279Z,1.42
2023-04-18T04:43:30.997Z,1.63
2023-04-18T04:44:33.942Z,1.88
2023-04-18T04:45:49.021Z,1.85
2023-04-18T04:46:57.529Z,1.88
2023-04-18T04:48:09.608Z,1.50
2023-04-18T04:49:12.841Z,1.90
2023-04-18T04:50:26.608Z,1.52
2023-04-18T04:51:29.924Z,1.30
2023-04-18T04:52:32.979Z,1.60
2023-04-18T04:53:49.536Z,1.88
2023-04-18T04:54:53.595Z,1.60
2023-04-18T04:56:00.763Z,1.52
2023-04-18T04:57:07.505Z,1.45
2023-04-18T04:58:16.330Z,1.75
2023-04-18T04:59:52.488Z,1.73
2023-04-18T05:01:02.424Z,1.50
2023-04-18T05:02:07.159Z,1.48
2023-04-18T05:03:10.938Z,2.05
2023-04-18T05:04:14.002Z,1.98
2023-04-18T05:05:17.642Z,1.58
2023-04-18T05:06:21.144Z,1.80
2023-04-18T05:07:39.298Z,1.80
2023-04-18T05:08:42.414Z,1.95
2023-04-18T05:09:45.427Z,1.40
2023-04-18T05:10:50.051Z,1.58
2023-04-18T05:12:17.830Z,1.55
2023-04-18T05:13:20.267Z,1.80
2023-04-18T05:14:23.247Z,1.67
2023-04-18T05:15:25.925Z,1.73
2023-04-18T05:16:28.581Z,1.52
2023-04-18T05:17:47.237Z,2.33
2023-04-18T05:18:56.348Z,1.80
2023-04-18T05:19:59.015Z,2.20
2023-04-18T05:21:01.904Z,1.67
2023-04-18T05:22:05.637Z,2.20
2023-04-18T05:23:08.367Z,2.28
2023-04-18T05:24:11.231Z,2.13
2023-04-18T05:25:30.657Z,2.03
2023-04-18T05:26:33.685Z,2.03
2023-04-18T05:27:36.598Z,1.90
2023-04-18T05:29:07.881Z,2.00
2023-04-18T05:30:38.454Z,2.00
2023-04-18T05:32:21.767Z,1.90
2023-04-18T05:33:24.438Z,2.15
2023-04-18T05:35:02.769Z,2.05
2023-04-18T05:36:05.788Z,2.40
2023-04-18T05:37:16.156Z,2.40
2023-04-18T05:38:18.890Z,2.38
2023-04-18T05:39:30.260Z,2.55
2023-04-18T05:43:27.575Z,2.63
2023-04-18T05:44:38.375Z,2.20
2023-04-18T05:45:42.773Z,2.10
2023-04-18T05:46:52.088Z,2.55
2023-04-18T05:47:55.696Z,2.03
2023-04-18T05:48:58.455Z,1.90
2023-04-18T05:50:01.027Z,2.03
2023-04-18T05:51:05.154Z,2.10
2023-04-18T05:52:07.571Z,2.10
2023-04-18T05:53:10.495Z,1.90
2023-04-18T05:54:13.058Z,1.95
2023-04-18T05:55:15.775Z,1.48
2023-04-18T05:56:18.214Z,1.85
2023-04-18T05:57:47.132Z,1.80
2023-04-18T05:58:52.661Z,1.85
2023-04-18T05:59:55.154Z,1.88
2023-04-18T06:00:58.707Z,2.10
2023-04-18T06:02:05.008Z,2.10
2023-04-18T06:03:09.232Z,1.75
2023-04-18T06:04:19.547Z,1.73
2023-04-18T06:05:22.859Z,1.38
2023-04-18T06:06:26.325Z,1.50
2023-04-18T06:07:28.924Z,1.70
2023-04-18T06:08:31.333Z,1.77
2023-04-18T06:11:37.350Z,1.67
2023-04-18T06:12:49.883Z,1.70
2023-04-18T06:13:56.208Z,1.80
2023-04-18T06:15:00.912Z,1.80
2023-04-18T06:16:03.788Z,1.65
2023-04-18T06:17:17.873Z,1.55
2023-04-18T06:18:20.574Z,1.70
2023-04-18T06:19:23.376Z,1.55
2023-04-18T06:21:15.642Z,1.83
2023-04-18T06:22:37.142Z,1.63
2023-04-18T06:23:54.886Z,1.85
2023-04-18T06:24:57.460Z,1.80
2023-04-18T06:27:31.474Z,1.95
2023-04-18T06:28:34.304Z,1.80
2023-04-18T06:29:47.714Z,1.70
2023-04-18T06:30:50.635Z,2.40
2023-04-18T06:31:53.067Z,1.80
2023-04-18T06:33:03.976Z,1.77
2023-04-18T06:34:06.705Z,1.80
2023-04-18T06:35:18.213Z,2.05
2023-04-18T06:36:25.807Z,1.85
2023-04-18T06:37:29.055Z,2.08
2023-04-18T06:38:32.280Z,1.98
2023-04-18T06:39:34.916Z,2.22
2023-04-18T06:40:43.591Z,2.10
2023-04-18T06:42:11.366Z,1.58
2023-04-18T06:44:29.272Z,1.80
2023-04-18T06:45:51.001Z,1.83
2023-04-18T06:46:53.504Z,1.98
2023-04-18T06:48:03.953Z,2.00
2023-04-18T06:49:10.616Z,2.40
2023-04-18T06:50:19.919Z,2.10
2023-04-18T06:54:03.149Z,1.50
2023-04-18T06:55:54.323Z,1.83
2023-04-18T07:00:17.479Z,2.03
2023-04-18T07:01:43.584Z,2.42
2023-04-18T07:03:36.679Z,2.10
2023-04-18T07:06:44.712Z,1.70
2023-04-18T07:08:11.538Z,1.98
2023-04-18T07:09:18.006Z,1.70
2023-04-18T07:10:30.987Z,1.80
2023-04-18T07:11:40.877Z,1.90
2023-04-18T07:12:43.956Z,1.90
2023-04-18T07:13:56.854Z,2.15
2023-04-18T07:15:14.741Z,1.92
2023-04-18T07:16:24.919Z,2.35
2023-04-18T07:17:45.645Z,1.73
2023-04-18T07:18:48.726Z,2.30
2023-04-18T07:20:00.344Z,2.00
2023-04-18T07:21:09.987Z,2.20
2023-04-18T07:22:14.079Z,2.33
2023-04-18T07:23:50.015Z,2.47
2023-04-18T07:25:08.672Z,2.28
2023-04-18T07:26:19.626Z,2.50
2023-04-18T07:27:29.553Z,2.20
2023-04-18T07:28:32.805Z,3.85
2023-04-18T07:29:49.000Z,7.13
2023-04-18T07:31:11.923Z,5.93
2023-04-18T07:33:38.138Z,4.05
2023-04-18T07:34:40.596Z,4.68
2023-04-18T07:36:07.740Z,3.35
2023-04-18T07:37:26.350Z,2.25
2023-04-18T07:38:29.212Z,2.03
2023-04-18T07:39:43.764Z,2.28
2023-04-18T07:40:53.825Z,2.03
2023-04-18T07:41:56.309Z,2.38
2023-04-18T07:43:11.097Z,2.08
2023-04-18T07:44:13.701Z,2.00
2023-04-18T07:45:16.461Z,2.33
2023-04-18T07:46:19.276Z,1.85
2023-04-18T07:48:38.258Z,1.88
2023-04-18T07:49:41.101Z,2.00
2023-04-18T07:50:43.529Z,2.20
2023-04-18T07:51:46.231Z,2.30
2023-04-18T07:52:48.813Z,2.10
2023-04-18T07:53:51.732Z,1.80
2023-04-18T07:54:55.460Z,2.08
2023-04-18T07:55:58.326Z,2.30
2023-04-18T07:57:01.046Z,2.33
2023-04-18T07:58:03.645Z,2.15
2023-04-18T07:59:06.127Z,2.05
2023-04-18T08:00:09.713Z,2.10
2023-04-18T08:01:24.344Z,1.90
2023-04-18T08:02:26.883Z,2.20
2023-04-18T08:03:30.030Z,2.08
2023-04-18T08:04:33.282Z,2.00
2023-04-18T08:05:35.853Z,2.10
2023-04-18T08:06:38.344Z,2.00
2023-04-18T08:07:41.023Z,1.83
2023-04-18T08:08:43.859Z,2.10
2023-04-18T08:09:46.313Z,2.00
2023-04-18T08:10:49.047Z,2.20
2023-04-18T08:11:51.585Z,2.50
2023-04-18T08:12:53.957Z,2.13
2023-04-18T08:13:56.330Z,1.90
2023-04-18T08:14:58.696Z,1.90
2023-04-18T08:16:02.488Z,2.00
2023-04-18T08:18:09.185Z,1.70
2023-04-18T08:19:54.343Z,2.13
2023-04-18T08:20:56.841Z,1.70
2023-04-18T08:22:09.385Z,2.17
2023-04-18T08:23:13.489Z,2.10
2023-04-18T08:25:25.406Z,1.88
2023-04-18T08:26:28.023Z,2.47
2023-04-18T08:27:34.296Z,2.20
2023-04-18T08:28:36.703Z,2.22
2023-04-18T08:29:39.225Z,2.17
2023-04-18T08:30:43.330Z,2.08
2023-04-18T08:32:50.384Z,1.80
2023-04-18T08:33:53.565Z,1.92
2023-04-18T08:34:56.433Z,2.28
2023-04-18T08:36:03.795Z,2.13
2023-04-18T08:37:07.426Z,2.00
2023-04-18T08:38:09.967Z,2.05
2023-04-18T08:39:12.864Z,1.80
2023-04-18T08:40:15.912Z,1.90
2023-04-18T08:41:25.189Z,2.10
2023-04-18T08:42:54.148Z,1.90
2023-04-18T08:45:09.798Z,1.90
2023-04-18T08:46:12.539Z,2.17
2023-04-18T08:47:24.465Z,1.90
2023-04-18T08:49:25.330Z,2.00
2023-04-18T08:50:28.069Z,2.25
2023-04-18T08:51:36.922Z,1.70
2023-04-18T08:52:48.312Z,2.10
2023-04-18T08:53:50.872Z,1.98
2023-04-18T08:54:53.478Z,1.88
2023-04-18T08:55:57.480Z,2.10
2023-04-18T08:57:04.924Z,2.00
2023-04-18T08:58:07.337Z,2.00
2023-04-18T08:59:35.916Z,2.20
2023-04-18T09:00:38.571Z,2.00
2023-04-18T09:01:59.145Z,2.10
2023-04-18T09:03:03.208Z,2.13
2023-04-18T09:04:06.398Z,2.10
2023-04-18T09:05:27.164Z,1.80
2023-04-18T09:06:53.328Z,1.75
2023-04-18T09:07:56.616Z,2.22
2023-04-18T09:08:59.419Z,2.60
2023-04-18T09:10:02.984Z,1.92
2023-04-18T09:13:03.854Z,1.70
2023-04-18T09:14:06.814Z,2.28
2023-04-18T09:15:12.634Z,1.90
2023-04-18T09:16:23.238Z,1.83
2023-04-18T09:17:56.492Z,2.10
2023-04-18T09:19:18.720Z,1.83
2023-04-18T09:20:35.170Z,2.10
2023-04-18T09:21:42.535Z,1.60
2023-04-18T09:22:54.531Z,1.75
2023-04-18T09:24:37.343Z,2.40
2023-04-18T09:25:48.201Z,1.80
2023-04-18T09:26:51.489Z,2.22
2023-04-18T09:29:10.646Z,2.13
2023-04-18T09:30:42.166Z,2.15
2023-04-18T09:32:11.266Z,1.88
2023-04-18T09:34:42.634Z,1.92
2023-04-18T09:35:45.063Z,1.98
2023-04-18T09:36:47.815Z,2.30
2023-04-18T09:37:51.390Z,1.70
2023-04-18T09:38:56.574Z,2.17
2023-04-18T09:39:59.930Z,1.70
2023-04-18T09:41:09.810Z,3.28
2023-04-18T09:42:12.941Z,2.13
2023-04-18T09:43:19.783Z,1.88
2023-04-18T09:44:22.234Z,2.45
2023-04-18T09:45:25.285Z,2.38
2023-04-18T09:46:37.111Z,1.70
2023-04-18T09:47:40.133Z,2.20
2023-04-18T09:48:42.710Z,2.13
2023-04-18T09:49:45.654Z,2.03
2023-04-18T09:50:48.683Z,2.20
2023-04-18T09:51:52.684Z,2.38
2023-04-18T09:53:57.574Z,2.33
2023-04-18T09:55:00.226Z,2.35
2023-04-18T09:56:03.100Z,2.08
2023-04-18T09:57:10.587Z,1.98
2023-04-18T09:58:13.880Z,2.38
2023-04-18T09:59:25.907Z,2.00
2023-04-18T10:00:30.337Z,2.20
2023-04-18T10:01:32.921Z,2.10
2023-04-18T10:02:48.045Z,2.40
2023-04-18T10:03:56.852Z,2.40
2023-04-18T10:04:59.670Z,2.10
2023-04-18T10:06:02.159Z,2.35
2023-04-18T10:07:04.985Z,2.00
2023-04-18T10:08:07.542Z,2.05
2023-04-18T10:09:10.440Z,1.98
2023-04-18T10:10:13.446Z,2.53
2023-04-18T10:11:16.825Z,2.05
2023-04-18T10:12:20.435Z,2.30
2023-04-18T10:13:24.035Z,2.00
2023-04-18T10:14:28.403Z,2.20
2023-04-18T10:15:31.208Z,2.28
2023-04-18T10:16:35.633Z,1.95
2023-04-18T10:17:56.118Z,1.77
2023-04-18T10:19:24.821Z,2.40
2023-04-18T10:20:29.169Z,2.45
2023-04-18T10:21:31.644Z,2.00
2023-04-18T10:22:35.570Z,2.38
2023-04-18T10:23:39.530Z,2.45
2023-04-18T10:24:54.451Z,2.05
2023-04-18T10:25:57.048Z,2.20
2023-04-18T10:26:59.389Z,2.47
2023-04-18T10:28:03.156Z,1.90
2023-04-18T10:29:05.907Z,2.10
2023-04-18T10:30:09.271Z,1.52
2023-04-18T10:31:11.968Z,2.63
2023-04-18T10:32:24.432Z,1.90
2023-04-18T10:33:31.143Z,2.22
2023-04-18T10:34:37.640Z,2.20
2023-04-18T10:36:00.254Z,2.25
2023-04-18T10:37:13.379Z,2.22
2023-04-18T10:38:19.161Z,2.15
2023-04-18T10:39:26.255Z,2.20
2023-04-18T10:40:43.350Z,2.20
2023-04-18T10:41:50.583Z,2.13
2023-04-18T10:42:54.153Z,2.22
2023-04-18T10:44:29.713Z,2.40
2023-04-18T10:45:36.572Z,2.25
2023-04-18T10:46:44.626Z,1.90
2023-04-18T10:47:56.537Z,2.20
2023-04-18T10:49:27.872Z,2.20
2023-04-18T10:50:31.900Z,2.30
2023-04-18T10:51:34.196Z,2.50
2023-04-18T10:52:36.526Z,2.05
2023-04-18T10:53:39.142Z,1.83
2023-04-18T10:54:58.969Z,2.25
2023-04-18T10:56:01.736Z,2.20
2023-04-18T10:57:11.425Z,2.00
2023-04-18T10:58:15.679Z,2.10
2023-04-18T10:59:18.374Z,2.10
2023-04-18T11:00:23.341Z,2.35
2023-04-18T11:01:31.750Z,1.88
2023-04-18T11:02:41.472Z,2.20
2023-04-18T11:03:49.964Z,2.25
2023-04-18T11:04:53.994Z,2.65
2023-04-18T11:06:02.479Z,2.22
2023-04-18T11:07:05.387Z,1.98
2023-04-18T11:08:29.117Z,2.28
2023-04-18T11:09:45.540Z,2.20
2023-04-18T11:11:00.631Z,1.88
2023-04-18T11:12:16.804Z,2.50
2023-04-18T11:13:25.583Z,2.30
2023-04-18T11:14:49.897Z,2.42
2023-04-18T11:15:52.241Z,2.53
2023-04-18T11:16:54.812Z,2.30
2023-04-18T11:17:58.112Z,2.33
2023-04-18T11:19:01.487Z,2.83
2023-04-18T11:20:39.362Z,2.95
2023-04-18T11:21:42.714Z,2.10
2023-04-18T11:23:15.002Z,2.15
2023-04-18T11:24:24.493Z,2.30
2023-04-18T11:25:36.584Z,2.40
2023-04-18T11:26:39.905Z,2.10
2023-04-18T11:27:51.777Z,2.45
2023-04-18T11:28:58.271Z,2.30
2023-04-18T11:30:00.722Z,2.60
2023-04-18T11:32:37.873Z,2.33
2023-04-18T11:33:40.170Z,2.30
2023-04-18T11:34:47.272Z,2.25
2023-04-18T11:35:51.654Z,2.35
2023-04-18T11:37:06.622Z,2.75
2023-04-18T11:38:11.499Z,2.20
2023-04-18T11:39:14.471Z,2.05
2023-04-18T11:40:16.738Z,2.40
2023-04-18T11:41:19.208Z,2.60
2023-04-18T11:42:28.249Z,2.45
2023-04-18T11:43:30.841Z,2.35
2023-04-18T11:44:36.361Z,2.47
2023-04-18T11:45:38.900Z,2.60
2023-04-18T11:46:49.813Z,2.50
2023-04-18T11:47:56.618Z,2.78
2023-04-18T11:48:59.415Z,2.05
2023-04-18T11:50:03.758Z,2.50
2023-04-18T11:51:10.720Z,2.35
2023-04-18T11:52:13.795Z,2.28
2023-04-18T11:53:32.318Z,2.33
2023-04-18T11:54:47.614Z,2.42
2023-04-18T11:55:56.248Z,2.38
2023-04-18T11:56:58.768Z,3.00
2023-04-18T11:58:02.001Z,2.30
2023-04-18T11:59:10.571Z,2.53
2023-04-18T12:00:13.597Z,2.70
2023-04-18T12:01:18.294Z,2.30
2023-04-18T12:02:38.244Z,2.63
2023-04-18T12:03:40.799Z,2.40
2023-04-18T12:05:00.316Z,2.63
2023-04-18T12:06:03.263Z,2.30
2023-04-18T12:07:05.938Z,2.90
2023-04-18T12:08:13.435Z,2.03
2023-04-18T12:09:17.216Z,2.75
2023-04-18T12:10:22.590Z,2.63
2023-04-18T12:11:24.962Z,2.58
2023-04-18T12:12:27.326Z,2.90
2023-04-18T12:13:33.271Z,2.60
2023-04-18T12:14:35.953Z,2.47
2023-04-18T12:15:40.961Z,2.47
2023-04-18T12:16:43.296Z,2.50
2023-04-18T12:17:48.664Z,2.17
2023-04-18T12:18:59.436Z,2.20
2023-04-18T12:20:03.866Z,2.40
2023-04-18T12:21:06.323Z,2.40
2023-04-18T12:22:09.905Z,2.92
2023-04-18T12:23:35.703Z,2.40
2023-04-18T12:24:38.116Z,2.63
2023-04-18T12:25:40.588Z,2.50
2023-04-18T12:26:46.352Z,2.55
2023-04-18T12:28:01.435Z,2.70
2023-04-18T12:29:03.785Z,2.55
2023-04-18T12:30:07.343Z,2.50
2023-04-18T12:31:10.025Z,2.30
2023-04-18T12:32:12.785Z,2.13
2023-04-18T12:33:15.224Z,2.30
2023-04-18T12:34:17.593Z,2.85
2023-04-18T12:35:21.063Z,2.45
2023-04-18T12:36:23.686Z,2.92
2023-04-18T12:37:33.657Z,2.75
2023-04-18T12:38:36.324Z,2.20
2023-04-18T12:39:38.994Z,2.50
2023-04-18T12:40:41.687Z,2.17
2023-04-18T12:41:44.455Z,2.20
2023-04-18T12:42:50.168Z,2.45
2023-04-18T12:43:53.302Z,2.20
2023-04-18T12:44:55.684Z,1.90
2023-04-18T12:45:59.561Z,2.20
2023-04-18T12:47:02.201Z,2.10
2023-04-18T12:48:04.936Z,2.28
2023-04-18T12:49:07.412Z,2.72
2023-04-18T12:50:11.688Z,2.30
2023-04-18T12:51:14.186Z,2.40
2023-04-18T12:52:16.605Z,2.60
2023-04-18T12:53:18.953Z,2.30
2023-04-18T12:54:21.324Z,2.40
2023-04-18T12:55:24.568Z,2.80
2023-04-18T12:56:27.050Z,2.60
2023-04-18T12:57:31.676Z,2.47
2023-04-18T12:58:34.527Z,2.67
2023-04-18T12:59:36.892Z,2.90
2023-04-18T13:00:39.250Z,2.58
2023-04-18T13:01:41.800Z,2.50
2023-04-18T13:02:45.392Z,2.47
2023-04-18T13:04:59.101Z,2.60
2023-04-18T13:06:01.409Z,2.40
2023-04-18T13:07:04.176Z,2.30
2023-04-18T13:08:16.363Z,2.63
2023-04-18T13:09:20.333Z,2.08
2023-04-18T13:10:24.925Z,2.40
2023-04-18T13:11:29.188Z,2.22
2023-04-18T13:12:31.592Z,2.30
2023-04-18T13:13:35.746Z,2.03
2023-04-18T13:14:39.240Z,2.35
2023-04-18T13:15:41.615Z,2.50
2023-04-18T13:16:44.362Z,2.30
2023-04-18T13:17:47.217Z,2.45
2023-04-18T13:18:49.580Z,2.70
2023-04-18T13:19:52.189Z,2.22
2023-04-18T13:20:54.739Z,2.50
2023-04-18T13:21:57.386Z,2.53
2023-04-18T13:22:59.895Z,2.47
2023-04-18T13:24:02.691Z,2.30
2023-04-18T13:25:05.973Z,2.22
2023-04-18T13:26:08.923Z,2.40
2023-04-18T13:27:11.504Z,2.60
2023-04-18T13:28:13.982Z,2.63
2023-04-18T13:29:16.567Z,3.00
2023-04-18T13:30:18.936Z,2.28
2023-04-18T13:31:21.312Z,2.58
2023-04-18T13:32:24.067Z,1.95
2023-04-18T13:33:26.520Z,2.53
2023-04-18T13:34:28.914Z,2.30
2023-04-18T13:35:31.268Z,2.42
2023-04-18T13:36:35.168Z,2.40
2023-04-18T13:37:38.439Z,2.17
2023-04-18T13:38:40.905Z,2.10
2023-04-18T13:39:43.632Z,2.10
2023-04-18T13:40:46.058Z,2.13
2023-04-18T13:41:48.600Z,2.33
2023-04-18T13:42:51.650Z,2.28
2023-04-18T13:43:54.457Z,2.38
2023-04-18T13:44:58.042Z,2.22
2023-04-18T13:46:00.461Z,2.75
2023-04-18T13:47:04.273Z,2.22
2023-04-18T13:50:11.968Z,2.55
2023-04-18T13:51:14.613Z,2.35
2023-04-18T13:52:17.607Z,3.33
2023-04-18T13:53:21.113Z,2.20
2023-04-18T13:54:27.851Z,2.20
2023-04-18T13:55:30.364Z,2.63
2023-04-18T13:56:32.768Z,2.38
2023-04-18T13:57:37.110Z,2.33
2023-04-18T13:58:39.495Z,2.28
2023-04-18T13:59:41.996Z,2.40
2023-04-18T14:00:44.338Z,2.20
2023-04-18T14:01:46.873Z,2.35
2023-04-18T14:02:49.484Z,2.60
2023-04-18T14:03:52.131Z,2.20
2023-04-18T14:04:55.090Z,2.50
2023-04-18T14:05:59.007Z,2.30
2023-04-18T14:09:09.598Z,2.40
2023-04-18T14:10:12.164Z,2.17
2023-04-18T14:11:14.667Z,2.30
2023-04-18T14:12:17.218Z,2.03
2023-04-18T14:13:19.531Z,2.00
2023-04-18T14:14:23.366Z,2.35
2023-04-18T14:16:32.264Z,1.85
2023-04-18T14:17:35.267Z,2.13
2023-04-18T14:18:38.503Z,1.70
2023-04-18T14:19:40.850Z,1.70
2023-04-18T14:20:43.670Z,1.88
2023-04-18T14:21:47.566Z,2.17
2023-04-18T14:22:52.305Z,2.08
2023-04-18T14:23:56.514Z,2.08
2023-04-18T14:24:58.792Z,2.60
2023-04-18T14:26:01.427Z,2.15
2023-04-18T14:27:04.371Z,2.05
2023-04-18T14:28:11.264Z,2.72
2023-04-18T14:29:14.693Z,2.60
2023-04-18T14:30:17.430Z,2.20
2023-04-18T14:31:19.954Z,2.25
2023-04-18T14:32:22.634Z,2.17
2023-04-18T14:33:24.934Z,2.70
2023-04-18T14:34:27.313Z,2.40
2023-04-18T14:35:29.997Z,1.88
2023-04-18T14:36:32.880Z,2.40
2023-04-18T14:37:35.685Z,2.28
2023-04-18T14:38:38.360Z,2.03
2023-04-18T14:39:41.260Z,2.30
2023-04-18T14:40:44.003Z,2.38
2023-04-18T14:41:46.565Z,2.08
2023-04-18T14:42:48.850Z,2.28
2023-04-18T14:43:51.210Z,2.42
2023-04-18T14:44:53.519Z,2.20
2023-04-18T14:45:56.790Z,2.58
2023-04-18T14:47:00.181Z,2.45
2023-04-18T14:48:02.843Z,2.75
2023-04-18T14:49:05.389Z,2.42
2023-04-18T14:50:09.517Z,2.17
2023-04-18T14:51:12.461Z,2.30
2023-04-18T14:52:14.810Z,2.55
2023-04-18T14:53:17.275Z,3.03
2023-04-18T14:54:19.562Z,4.10
2023-04-18T14:55:21.865Z,3.08
2023-04-18T14:56:24.460Z,3.47
2023-04-18T14:57:26.861Z,3.97
2023-04-18T14:58:29.165Z,4.10
2023-04-18T14:59:31.597Z,5.80
2023-04-18T15:00:33.972Z,4.70
2023-04-18T15:01:37.272Z,5.32
2023-04-18T15:02:40.163Z,6.22
2023-04-18T15:03:43.386Z,4.75
2023-04-18T15:04:46.070Z,4.28
2023-04-18T15:05:49.252Z,2.92
2023-04-18T15:06:51.937Z,3.10
2023-04-18T15:07:54.298Z,2.70
2023-04-18T15:08:56.893Z,3.05
2023-04-18T15:09:59.994Z,2.70
2023-04-18T15:11:08.907Z,2.50
2023-04-18T15:12:11.290Z,3.20
2023-04-18T15:13:13.853Z,2.40
2023-04-18T15:14:16.440Z,2.60
2023-04-18T15:15:19.794Z,2.50
2023-04-18T15:16:22.185Z,2.63
2023-04-18T15:17:24.867Z,2.15
2023-04-18T15:18:27.400Z,2.60
2023-04-18T15:19:31.235Z,2.60
2023-04-18T15:20:34.658Z,2.70
2023-04-18T15:21:37.018Z,2.55
2023-04-18T15:22:39.579Z,2.72
2023-04-18T15:23:42.149Z,2.95
2023-04-18T15:24:44.465Z,2.58
2023-04-18T15:25:46.901Z,2.53
2023-04-18T15:26:49.378Z,2.70
2023-04-18T15:27:52.588Z,2.67
2023-04-18T15:28:54.993Z,2.63
2023-04-18T15:30:05.448Z,2.88